createdAt,value
2018-10-16T00:01:06.246Z,92.90
2018-10-16T00:03:35.445Z,92.90
2018-10-16T00:06:04.910Z,92.10
2018-10-16T00:08:34.152Z,92.40
2018-10-16T00:11:03.360Z,92.70
2018-10-16T00:13:32.542Z,93.10
2018-10-16T00:16:01.836Z,93.90
2018-10-16T00:18:31.033Z,93.70
2018-10-16T00:21:00.290Z,93.90
2018-10-16T00:23:29.526Z,93.50
2018-10-16T00:25:58.706Z,93.50
2018-10-16T00:28:27.916Z,93.70
2018-10-16T00:31:07.322Z,93.30
2018-10-16T00:33:36.517Z,93.20
2018-10-16T00:36:06.094Z,93.70
2018-10-16T00:38:35.315Z,92.50
2018-10-16T00:41:04.513Z,93.40
2018-10-16T00:43:33.702Z,92.00
2018-10-16T00:46:02.934Z,92.80
2018-10-16T00:48:32.163Z,92.20
2018-10-16T00:51:01.373Z,92.30
2018-10-16T00:53:30.631Z,91.00
2018-10-16T00:55:59.817Z,92.00
2018-10-16T00:58:29.022Z,92.30
2018-10-16T01:00:58.251Z,91.90
2018-10-16T01:03:27.435Z,92.20
2018-10-16T01:05:56.631Z,93.00
2018-10-16T01:08:26.058Z,91.90
2018-10-16T01:10:55.351Z,94.50
2018-10-16T01:13:24.536Z,93.10
2018-10-16T01:15:53.783Z,93.30
2018-10-16T01:18:23.005Z,92.50
2018-10-16T01:20:52.206Z,93.10
2018-10-16T01:23:21.472Z,92.90
2018-10-16T01:25:50.679Z,93.70
2018-10-16T01:28:19.870Z,94.10
2018-10-16T01:30:49.113Z,93.90
2018-10-16T01:33:18.434Z,93.60
2018-10-16T01:35:47.667Z,92.60
2018-10-16T01:38:17.039Z,92.90
2018-10-16T01:40:46.254Z,93.90
2018-10-16T01:43:15.453Z,93.40
2018-10-16T01:45:44.697Z,92.40
2018-10-16T01:48:13.890Z,92.50
2018-10-16T01:50:43.231Z,95.80
2018-10-16T01:53:12.477Z,94.20
2018-10-16T01:56:05.040Z,93.90
2018-10-16T01:58:34.260Z,93.80
2018-10-16T02:01:03.496Z,93.40
2018-10-16T02:03:32.731Z,93.40
2018-10-16T02:06:01.955Z,94.10
2018-10-16T02:08:31.143Z,96.90
2018-10-16T02:11:00.357Z,96.20
2018-10-16T02:13:29.583Z,95.80
2018-10-16T02:15:58.780Z,95.80
2018-10-16T02:18:27.988Z,95.20
2018-10-16T02:20:57.228Z,94.40
2018-10-16T02:23:26.444Z,94.60
2018-10-16T02:25:55.648Z,94.70
2018-10-16T02:28:24.866Z,94.70
2018-10-16T02:30:54.092Z,94.70
2018-10-16T02:33:23.286Z,94.90
2018-10-16T02:35:52.520Z,94.60
2018-10-16T02:38:21.753Z,94.80
2018-10-16T02:40:50.942Z,94.80
2018-10-16T02:43:20.183Z,94.30
2018-10-16T02:45:49.477Z,94.40
2018-10-16T02:48:18.679Z,95.20
2018-10-16T02:50:47.947Z,95.50
2018-10-16T02:53:17.145Z,95.00
2018-10-16T02:55:46.376Z,94.50
2018-10-16T02:58:15.613Z,96.90
2018-10-16T03:00:44.895Z,96.80
2018-10-16T03:03:14.211Z,95.80
2018-10-16T03:06:07.031Z,95.60
2018-10-16T03:08:37.304Z,96.20
2018-10-16T03:11:06.923Z,96.10
2018-10-16T03:13:36.162Z,97.10
2018-10-16T03:16:05.710Z,95.40
2018-10-16T03:18:34.903Z,95.20
2018-10-16T03:21:04.119Z,96.00
2018-10-16T03:23:33.362Z,96.90
2018-10-16T03:26:02.579Z,97.50
2018-10-16T03:28:31.806Z,96.90
2018-10-16T03:31:01.315Z,96.50
2018-10-16T03:33:30.547Z,97.30
2018-10-16T03:36:00.380Z,95.70
2018-10-16T03:38:29.731Z,94.30
2018-10-16T03:40:58.963Z,98.10
2018-10-16T03:43:28.222Z,96.60
2018-10-16T03:45:57.411Z,95.00
2018-10-16T03:48:26.607Z,95.30
2018-10-16T03:50:56.222Z,97.40
2018-10-16T03:53:25.427Z,97.00
2018-10-16T03:55:54.686Z,96.40
2018-10-16T03:58:23.930Z,97.60
2018-10-16T04:00:53.140Z,98.70
2018-10-16T04:03:22.374Z,97.80
2018-10-16T04:05:52.227Z,95.90
2018-10-16T04:08:21.439Z,99.00
2018-10-16T04:10:50.634Z,96.10
2018-10-16T04:13:20.123Z,96.30
2018-10-16T04:15:49.354Z,96.30
2018-10-16T04:18:18.550Z,97.20
2018-10-16T04:20:47.809Z,96.50
2018-10-16T04:23:17.020Z,95.70
2018-10-16T04:25:46.242Z,96.10
2018-10-16T04:28:15.441Z,96.10
2018-10-16T04:30:44.639Z,97.20
2018-10-16T04:33:13.883Z,96.50
2018-10-16T04:35:43.072Z,99.80
2018-10-16T04:38:12.355Z,96.80
2018-10-16T04:40:41.857Z,99.90
2018-10-16T04:46:12.050Z,99.70
2018-10-16T04:48:41.272Z,99.90
2018-10-16T04:51:10.942Z,99.40
2018-10-16T04:53:40.178Z,99.50
2018-10-16T04:56:09.378Z,99.90
2018-10-16T04:58:38.911Z,99.90
2018-10-16T05:01:08.320Z,97.50
2018-10-16T05:03:37.715Z,97.30
2018-10-16T05:06:07.548Z,99.80
2018-10-16T05:08:36.735Z,99.90
2018-10-16T05:11:06.211Z,99.90
2018-10-16T05:13:35.447Z,99.90
2018-10-16T05:16:04.671Z,97.00
2018-10-16T05:18:33.879Z,98.40
2018-10-16T05:21:03.096Z,99.90
2018-10-16T05:23:32.287Z,98.60
2018-10-16T05:26:01.478Z,99.90
2018-10-16T05:31:30.922Z,99.90
2018-10-16T05:34:00.112Z,99.90
2018-10-16T05:36:29.404Z,99.00
2018-10-16T05:38:58.684Z,99.90
2018-10-16T05:41:27.860Z,99.90
2018-10-16T05:43:57.083Z,99.90
2018-10-16T05:46:26.456Z,99.90
2018-10-16T05:48:55.945Z,99.90
2018-10-16T05:51:25.251Z,99.90
2018-10-16T05:53:54.497Z,99.90
2018-10-16T05:56:23.652Z,99.90
2018-10-16T05:59:05.720Z,99.90
2018-10-16T06:02:04.302Z,99.90
2018-10-16T06:04:33.479Z,99.90
2018-10-16T06:07:08.756Z,99.90
2018-10-16T06:10:04.769Z,99.90
2018-10-16T06:12:33.927Z,99.90
2018-10-16T06:15:08.890Z,99.80
2018-10-16T06:18:04.458Z,99.90
2018-10-16T06:20:33.650Z,99.90
2018-10-16T06:23:08.820Z,99.90
2018-10-16T06:26:04.857Z,99.90
2018-10-16T06:28:34.040Z,99.90
2018-10-16T06:31:07.074Z,99.90
2018-10-16T06:33:36.281Z,99.90
2018-10-16T06:36:05.678Z,99.90
2018-10-16T06:38:34.950Z,99.90
2018-10-16T06:41:07.497Z,99.90
2018-10-16T06:43:37.863Z,99.90
2018-10-16T06:46:07.058Z,99.90
2018-10-16T06:51:37.010Z,99.90
2018-10-16T08:15:07.517Z,97.40
2018-10-16T08:18:04.312Z,96.10
2018-10-16T08:30:04.781Z,95.80
2018-10-16T09:03:04.683Z,93.90
2018-10-16T09:09:04.247Z,93.80
2018-10-16T09:18:04.850Z,92.90
2018-10-16T09:24:04.474Z,93.90
2018-10-16T09:36:04.654Z,91.30
2018-10-16T09:42:04.282Z,91.20
2018-10-16T09:54:04.339Z,89.80
2018-10-16T10:12:04.797Z,85.40
2018-10-16T10:21:04.309Z,85.80
2018-10-16T10:45:04.395Z,83.70
2018-10-16T10:57:04.787Z,82.50
2018-10-16T11:06:04.824Z,82.00
2018-10-16T11:12:04.326Z,82.30
2018-10-16T11:51:04.505Z,78.60
2018-10-16T12:03:04.829Z,81.50
2018-10-16T12:12:04.341Z,78.80
2018-10-16T12:27:04.692Z,80.20
2018-10-16T12:33:04.401Z,78.10
2018-10-16T12:45:05.030Z,79.70
2018-10-16T12:51:04.563Z,78.10
2018-10-16T13:03:04.732Z,77.40
2018-10-16T13:09:04.601Z,76.90
2018-10-16T13:24:04.936Z,76.70
2018-10-16T13:30:04.529Z,76.90
2018-10-16T13:39:05.123Z,76.30
2018-10-16T13:54:05.042Z,76.00
2018-10-16T14:03:04.522Z,76.30
2018-10-16T14:09:04.295Z,76.00
2018-10-16T14:11:33.666Z,78.10
2018-10-16T14:14:02.868Z,75.20
2018-10-16T14:16:32.103Z,74.80
2018-10-16T14:19:01.285Z,74.40
2018-10-16T14:21:30.451Z,74.70
2018-10-16T14:23:59.642Z,75.70
2018-10-16T14:26:28.968Z,75.70
2018-10-16T14:28:58.126Z,75.10
2018-10-16T14:31:27.353Z,74.80
2018-10-16T14:33:56.624Z,74.20
2018-10-16T14:36:25.798Z,75.20
2018-10-16T14:38:55.127Z,75.70
2018-10-16T14:44:24.208Z,75.50
2018-10-16T14:46:53.396Z,74.70
2018-10-16T14:52:22.495Z,74.20
2018-10-16T14:55:06.546Z,74.90
2018-10-16T14:57:35.991Z,74.40
2018-10-16T15:00:07.250Z,73.70
2018-10-16T15:03:05.586Z,73.40
2018-10-16T15:05:34.787Z,73.60
2018-10-16T15:08:04.059Z,73.30
2018-10-16T15:10:33.315Z,74.80
2018-10-16T15:13:02.625Z,73.70
2018-10-16T15:15:31.781Z,74.30
2018-10-16T15:18:00.990Z,74.20
2018-10-16T15:20:30.184Z,74.00
2018-10-16T15:22:59.341Z,74.30
2018-10-16T15:25:28.562Z,75.20
2018-10-16T15:27:57.771Z,74.00
2018-10-16T15:33:27.194Z,74.10
2018-10-16T15:35:56.390Z,74.30
2018-10-16T15:38:25.567Z,75.00
2018-10-16T15:40:54.903Z,74.70
2018-10-16T15:43:24.172Z,75.80
2018-10-16T15:45:53.375Z,76.20
2018-10-16T15:48:22.574Z,77.00
2018-10-16T15:50:51.819Z,75.70
2018-10-16T15:53:20.925Z,75.00
2018-10-16T15:55:50.198Z,75.50
2018-10-16T15:58:19.381Z,77.00
2018-10-16T16:00:48.573Z,77.40
2018-10-16T16:03:17.875Z,77.80
2018-10-16T16:05:47.145Z,76.90
2018-10-16T16:08:16.362Z,76.30
2018-10-16T16:10:45.543Z,76.80
2018-10-16T16:13:14.993Z,77.50
2018-10-16T16:15:44.214Z,77.90
2018-10-16T16:18:13.417Z,77.30
2018-10-16T16:20:42.592Z,77.50
2018-10-16T16:23:11.865Z,77.00
2018-10-16T16:25:41.045Z,78.20
2018-10-16T16:28:10.304Z,77.50
2018-10-16T16:31:05.017Z,78.40
2018-10-16T16:37:04.617Z,77.80
2018-10-16T16:39:33.798Z,79.10
2018-10-16T16:42:09.034Z,77.70
2018-10-16T16:45:04.966Z,78.70
2018-10-16T16:47:34.168Z,78.40
2018-10-16T16:50:03.360Z,79.30
2018-10-16T16:52:32.529Z,79.20
2018-10-16T16:55:09.539Z,78.60
2018-10-16T16:57:38.816Z,79.00
2018-10-16T17:00:10.594Z,79.20
2018-10-16T17:02:40.678Z,79.20
2018-10-16T17:08:16.609Z,78.70
2018-10-16T17:10:45.811Z,80.80
2018-10-16T17:13:16.724Z,80.30
2018-10-16T17:15:46.007Z,81.00
2018-10-16T17:18:15.310Z,80.60
2018-10-16T17:20:44.562Z,81.90
2018-10-16T17:23:14.607Z,82.60
2018-10-16T17:25:44.182Z,82.10
2018-10-16T17:28:13.422Z,81.40
2018-10-16T17:30:42.587Z,81.70
2018-10-16T17:36:13.504Z,82.40
2018-10-16T17:38:42.788Z,82.90
2018-10-16T17:41:12.647Z,82.50
2018-10-16T17:53:25.874Z,81.70
2018-10-16T17:59:12.628Z,82.00
2018-10-16T18:05:05.962Z,81.70
2018-10-16T18:11:04.718Z,83.10
2018-10-16T18:20:04.556Z,84.30
2018-10-16T18:35:04.830Z,84.10
2018-10-16T18:37:34.287Z,84.20
2018-10-16T18:40:03.537Z,85.10
2018-10-16T18:42:34.747Z,85.90
2018-10-16T18:45:05.606Z,85.30
2018-10-16T18:47:34.854Z,86.70
2018-10-16T18:50:06.512Z,86.70
2018-10-16T18:52:36.584Z,86.50
2018-10-16T18:58:13.590Z,86.80
2018-10-16T19:03:40.811Z,86.30
2018-10-16T19:06:10.368Z,86.80
2018-10-16T19:08:40.950Z,88.30
2018-10-16T19:11:10.316Z,88.60
2018-10-16T19:13:40.228Z,88.40
2018-10-16T19:16:09.628Z,87.70
2018-10-16T19:18:39.090Z,86.90
2018-10-16T19:21:08.669Z,87.50
2018-10-16T19:23:37.937Z,88.90
2018-10-16T19:26:18.277Z,87.50
2018-10-16T19:28:48.439Z,88.30
2018-10-16T19:31:17.781Z,88.50
2018-10-16T19:33:47.160Z,89.30
2018-10-16T19:36:18.685Z,88.20
2018-10-16T19:38:51.200Z,88.60
2018-10-16T19:44:43.483Z,89.10
2018-10-16T19:47:12.901Z,89.80
2018-10-16T19:49:43.939Z,89.80
2018-10-16T19:55:10.795Z,88.30
2018-10-16T19:57:41.459Z,88.50
2018-10-16T20:00:12.183Z,89.60
2018-10-16T20:02:42.500Z,87.80
2018-10-16T20:05:12.985Z,89.30
2018-10-16T20:08:05.772Z,88.10
2018-10-16T20:10:36.002Z,89.50
2018-10-16T20:13:05.637Z,88.40
2018-10-16T20:15:35.782Z,88.50
2018-10-16T20:18:09.371Z,90.10
2018-10-16T20:20:40.663Z,90.70
2018-10-16T20:26:16.522Z,90.60
2018-10-16T20:28:46.790Z,90.60
2018-10-16T20:31:16.440Z,90.40
2018-10-16T20:33:56.113Z,90.00
2018-10-16T20:36:25.429Z,89.20
2018-10-16T20:38:54.881Z,89.40
2018-10-16T20:41:24.070Z,89.60
2018-10-16T20:43:53.722Z,90.00
2018-10-16T20:46:22.894Z,90.20
2018-10-16T20:48:53.225Z,90.10
2018-10-16T20:54:22.614Z,90.50
2018-10-16T20:56:51.773Z,91.60
2018-10-16T20:59:20.952Z,91.40
2018-10-16T21:01:50.302Z,92.00
2018-10-16T21:04:19.489Z,91.20
2018-10-16T21:06:48.936Z,91.60
2018-10-16T21:09:17.885Z,91.20
2018-10-16T21:11:47.039Z,91.80
2018-10-16T21:14:16.216Z,91.90
2018-10-16T21:16:47.530Z,92.50
2018-10-16T21:19:16.743Z,92.20
2018-10-16T21:21:45.937Z,92.00
2018-10-16T21:24:15.675Z,91.40
2018-10-16T21:26:44.870Z,91.80
2018-10-16T21:29:14.108Z,91.60
2018-10-16T21:31:43.278Z,92.10
2018-10-16T21:34:12.479Z,92.40
2018-10-16T21:36:41.709Z,92.50
2018-10-16T21:39:11.231Z,92.50
2018-10-16T21:41:40.385Z,92.50
2018-10-16T21:44:09.553Z,93.00
2018-10-16T21:46:38.729Z,93.30
2018-10-16T21:49:08.017Z,92.30
2018-10-16T21:51:37.137Z,92.40
2018-10-16T21:54:06.489Z,93.70
2018-10-16T21:56:35.650Z,93.50
2018-10-16T21:59:04.944Z,93.20
2018-10-16T22:04:35.065Z,92.90
2018-10-16T22:07:04.254Z,92.40
2018-10-16T22:09:33.437Z,92.70
2018-10-16T22:12:02.643Z,93.40
2018-10-16T22:14:31.864Z,94.40
2018-10-16T22:17:01.093Z,92.60
2018-10-16T22:19:30.302Z,93.10
2018-10-16T22:21:59.461Z,93.90
2018-10-16T22:27:32.989Z,94.60
2018-10-16T22:33:16.561Z,95.40
2018-10-16T22:35:45.759Z,95.00
2018-10-16T22:38:14.982Z,94.90
2018-10-16T22:40:44.316Z,95.00
2018-10-16T22:43:13.556Z,94.90
2018-10-16T22:45:42.687Z,94.30
2018-10-16T22:48:11.944Z,94.70
2018-10-16T22:50:41.119Z,95.10
2018-10-16T22:53:10.312Z,95.70
2018-10-16T22:55:39.498Z,95.40
2018-10-16T22:58:08.658Z,94.50
2018-10-16T23:00:37.825Z,95.30
2018-10-16T23:03:07.024Z,95.30
2018-10-16T23:05:36.189Z,94.40
2018-10-16T23:08:05.457Z,94.50
2018-10-16T23:10:34.677Z,95.50
2018-10-16T23:13:07.790Z,95.40
2018-10-16T23:15:37.100Z,95.40
2018-10-16T23:18:06.353Z,95.30
2018-10-16T23:20:35.588Z,94.90
2018-10-16T23:23:05.266Z,95.30
2018-10-16T23:25:34.404Z,95.50
2018-10-16T23:28:03.557Z,95.60
2018-10-16T23:30:32.738Z,93.80
2018-10-16T23:33:01.897Z,94.70
2018-10-16T23:35:31.049Z,94.10
2018-10-16T23:38:00.230Z,95.10
2018-10-16T23:43:30.456Z,96.30
2018-10-16T23:45:59.569Z,95.90
2018-10-16T23:48:28.729Z,96.10
2018-10-16T23:50:57.920Z,96.00
2018-10-16T23:53:27.069Z,96.10
2018-10-16T23:55:56.224Z,95.40
2018-10-16T23:58:25.414Z,95.20
